sensor_id;sensor_type;location;lat;lon;timestamp;P1;durP1;ratioP1;P2;durP2;ratioP2
1545;SDS011;766;51.502;9.752;2023-03-16T00:00:48;1.27;;;0.60;;
1545;SDS011;766;51.502;9.752;2023-03-16T00:03:16;7.18;;;0.90;;
1545;SDS011;766;51.502;9.752;2023-03-16T00:05:46;3.38;;;0.65;;
1545;SDS011;766;51.502;9.752;2023-03-16T00:08:15;3.88;;;0.80;;
1545;SDS011;766;51.502;9.752;2023-03-16T00:10:45;3.75;;;0.80;;
1545;SDS011;766;51.502;9.752;2023-03-16T00:13:14;7.60;;;1.23;;
1545;SDS011;766;51.502;9.752;2023-03-16T00:15:49;7.13;;;1.63;;
1545;SDS011;766;51.502;9.752;2023-03-16T00:18:19;9.52;;;4.05;;
1545;SDS011;766;51.502;9.752;2023-03-16T00:20:51;4.47;;;2.22;;
1545;SDS011;766;51.502;9.752;2023-03-16T00:23:21;8.43;;;1.88;;
1545;SDS011;766;51.502;9.752;2023-03-16T00:25:53;7.15;;;1.83;;
1545;SDS011;766;51.502;9.752;2023-03-16T00:28:25;3.80;;;1.23;;
1545;SDS011;766;51.502;9.752;2023-03-16T00:30:57;4.95;;;1.10;;
1545;SDS011;766;51.502;9.752;2023-03-16T00:33:26;2.87;;;1.00;;
1545;SDS011;766;51.502;9.752;2023-03-16T00:35:55;2.75;;;0.73;;
1545;SDS011;766;51.502;9.752;2023-03-16T00:38:29;2.13;;;0.70;;
1545;SDS011;766;51.502;9.752;2023-03-16T00:41:00;2.20;;;0.73;;
1545;SDS011;766;51.502;9.752;2023-03-16T00:43:29;2.37;;;0.67;;
1545;SDS011;766;51.502;9.752;2023-03-16T00:46:07;2.67;;;0.95;;
1545;SDS011;766;51.502;9.752;2023-03-16T00:48:38;2.53;;;0.80;;
1545;SDS011;766;51.502;9.752;2023-03-16T00:51:08;5.20;;;0.95;;
1545;SDS011;766;51.502;9.752;2023-03-16T00:53:39;6.73;;;0.97;;
1545;SDS011;766;51.502;9.752;2023-03-16T00:56:09;3.40;;;0.80;;
1545;SDS011;766;51.502;9.752;2023-03-16T00:58:39;5.35;;;0.90;;
1545;SDS011;766;51.502;9.752;2023-03-16T01:01:11;2.60;;;0.80;;
1545;SDS011;766;51.502;9.752;2023-03-16T01:03:41;5.50;;;1.10;;
1545;SDS011;766;51.502;9.752;2023-03-16T01:06:11;3.08;;;0.90;;
1545;SDS011;766;51.502;9.752;2023-03-16T01:08:40;3.75;;;0.73;;
1545;SDS011;766;51.502;9.752;2023-03-16T01:11:10;6.57;;;1.30;;
1545;SDS011;766;51.502;9.752;2023-03-16T01:13:42;2.50;;;0.80;;
1545;SDS011;766;51.502;9.752;2023-03-16T01:16:14;1.70;;;0.70;;
1545;SDS011;766;51.502;9.752;2023-03-16T01:18:44;5.22;;;0.65;;
1545;SDS011;766;51.502;9.752;2023-03-16T01:21:13;5.03;;;0.73;;
1545;SDS011;766;51.502;9.752;2023-03-16T01:23:41;2.00;;;0.73;;
1545;SDS011;766;51.502;9.752;2023-03-16T01:26:10;2.10;;;0.73;;
1545;SDS011;766;51.502;9.752;2023-03-16T01:28:40;4.68;;;0.90;;
1545;SDS011;766;51.502;9.752;2023-03-16T01:31:17;3.83;;;0.73;;
1545;SDS011;766;51.502;9.752;2023-03-16T01:33:46;3.97;;;0.70;;
1545;SDS011;766;51.502;9.752;2023-03-16T01:36:16;4.72;;;0.73;;
1545;SDS011;766;51.502;9.752;2023-03-16T01:38:45;3.97;;;1.10;;
1545;SDS011;766;51.502;9.752;2023-03-16T01:41:14;5.72;;;1.08;;
1545;SDS011;766;51.502;9.752;2023-03-16T01:43:43;5.75;;;1.23;;
1545;SDS011;766;51.502;9.752;2023-03-16T01:46:14;3.80;;;1.10;;
1545;SDS011;766;51.502;9.752;2023-03-16T01:51:36;6.80;;;1.02;;
1545;SDS011;766;51.502;9.752;2023-03-16T01:54:11;1.70;;;0.95;;
1545;SDS011;766;51.502;9.752;2023-03-16T01:56:47;2.35;;;1.02;;
1545;SDS011;766;51.502;9.752;2023-03-16T01:59:22;3.92;;;0.93;;
1545;SDS011;766;51.502;9.752;2023-03-16T02:01:55;6.97;;;1.02;;
1545;SDS011;766;51.502;9.752;2023-03-16T02:04:33;4.57;;;0.68;;
1545;SDS011;766;51.502;9.752;2023-03-16T02:07:09;2.85;;;1.00;;
1545;SDS011;766;51.502;9.752;2023-03-16T02:09:38;2.83;;;1.20;;
1545;SDS011;766;51.502;9.752;2023-03-16T02:12:09;3.17;;;0.75;;
1545;SDS011;766;51.502;9.752;2023-03-16T02:14:43;3.15;;;0.90;;
1545;SDS011;766;51.502;9.752;2023-03-16T02:17:14;2.03;;;0.95;;
1545;SDS011;766;51.502;9.752;2023-03-16T02:19:47;2.60;;;1.13;;
1545;SDS011;766;51.502;9.752;2023-03-16T02:22:22;6.68;;;1.40;;
1545;SDS011;766;51.502;9.752;2023-03-16T02:24:51;4.80;;;1.30;;
1545;SDS011;766;51.502;9.752;2023-03-16T02:27:22;4.33;;;1.20;;
1545;SDS011;766;51.502;9.752;2023-03-16T02:30:05;5.10;;;1.20;;
1545;SDS011;766;51.502;9.752;2023-03-16T02:32:37;2.67;;;1.30;;
1545;SDS011;766;51.502;9.752;2023-03-16T02:35:07;3.60;;;1.17;;
1545;SDS011;766;51.502;9.752;2023-03-16T02:37:37;2.60;;;0.90;;
1545;SDS011;766;51.502;9.752;2023-03-16T02:40:15;3.10;;;1.05;;
1545;SDS011;766;51.502;9.752;2023-03-16T02:42:53;3.50;;;0.98;;
1545;SDS011;766;51.502;9.752;2023-03-16T02:45:30;4.00;;;0.95;;
1545;SDS011;766;51.502;9.752;2023-03-16T02:48:04;8.23;;;1.73;;
1545;SDS011;766;51.502;9.752;2023-03-16T02:50:44;2.35;;;0.90;;
1545;SDS011;766;51.502;9.752;2023-03-16T02:53:14;3.67;;;1.20;;
1545;SDS011;766;51.502;9.752;2023-03-16T02:55:43;3.90;;;1.07;;
1545;SDS011;766;51.502;9.752;2023-03-16T02:58:11;1.87;;;0.90;;
1545;SDS011;766;51.502;9.752;2023-03-16T03:00:42;8.30;;;1.27;;
1545;SDS011;766;51.502;9.752;2023-03-16T03:03:11;2.72;;;1.00;;
1545;SDS011;766;51.502;9.752;2023-03-16T03:05:39;3.20;;;1.35;;
1545;SDS011;766;51.502;9.752;2023-03-16T03:08:08;1.60;;;0.90;;
1545;SDS011;766;51.502;9.752;2023-03-16T03:10:36;4.45;;;1.02;;
1545;SDS011;766;51.502;9.752;2023-03-16T03:13:07;2.03;;;1.08;;
1545;SDS011;766;51.502;9.752;2023-03-16T03:15:36;5.63;;;1.27;;
1545;SDS011;766;51.502;9.752;2023-03-16T03:18:06;2.67;;;1.08;;
1545;SDS011;766;51.502;9.752;2023-03-16T03:20:35;5.05;;;1.20;;
1545;SDS011;766;51.502;9.752;2023-03-16T03:23:03;4.10;;;1.57;;
1545;SDS011;766;51.502;9.752;2023-03-16T03:25:31;3.40;;;0.90;;
1545;SDS011;766;51.502;9.752;2023-03-16T03:28:01;5.33;;;1.27;;
1545;SDS011;766;51.502;9.752;2023-03-16T03:30:31;3.33;;;1.50;;
1545;SDS011;766;51.502;9.752;2023-03-16T03:32:59;3.93;;;1.37;;
1545;SDS011;766;51.502;9.752;2023-03-16T03:35:29;2.75;;;1.08;;
1545;SDS011;766;51.502;9.752;2023-03-16T03:37:58;4.70;;;1.50;;
1545;SDS011;766;51.502;9.752;2023-03-16T03:40:27;2.58;;;1.52;;
1545;SDS011;766;51.502;9.752;2023-03-16T03:42:57;5.13;;;1.90;;
1545;SDS011;766;51.502;9.752;2023-03-16T03:45:26;7.97;;;2.08;;
1545;SDS011;766;51.502;9.752;2023-03-16T03:47:55;6.68;;;2.30;;
1545;SDS011;766;51.502;9.752;2023-03-16T03:50:23;4.90;;;2.15;;
1545;SDS011;766;51.502;9.752;2023-03-16T03:52:54;5.93;;;2.67;;
1545;SDS011;766;51.502;9.752;2023-03-16T03:55:22;5.53;;;2.00;;
1545;SDS011;766;51.502;9.752;2023-03-16T03:57:50;2.67;;;1.50;;
1545;SDS011;766;51.502;9.752;2023-03-16T04:00:20;6.68;;;1.67;;
1545;SDS011;766;51.502;9.752;2023-03-16T04:02:49;11.00;;;1.97;;
1545;SDS011;766;51.502;9.752;2023-03-16T04:05:17;10.13;;;1.87;;
1545;SDS011;766;51.502;9.752;2023-03-16T04:07:46;6.60;;;2.00;;
1545;SDS011;766;51.502;9.752;2023-03-16T04:10:18;5.33;;;1.70;;
1545;SDS011;766;51.502;9.752;2023-03-16T04:12:46;6.03;;;1.73;;
1545;SDS011;766;51.502;9.752;2023-03-16T04:15:14;4.77;;;1.80;;
1545;SDS011;766;51.502;9.752;2023-03-16T04:17:43;9.10;;;1.93;;
1545;SDS011;766;51.502;9.752;2023-03-16T04:20:11;3.97;;;2.20;;
1545;SDS011;766;51.502;9.752;2023-03-16T04:22:41;3.67;;;1.90;;
1545;SDS011;766;51.502;9.752;2023-03-16T04:25:10;3.67;;;1.77;;
1545;SDS011;766;51.502;9.752;2023-03-16T04:27:42;6.10;;;1.77;;
1545;SDS011;766;51.502;9.752;2023-03-16T04:30:12;3.97;;;1.73;;
1545;SDS011;766;51.502;9.752;2023-03-16T04:32:42;2.27;;;1.50;;
1545;SDS011;766;51.502;9.752;2023-03-16T04:35:10;5.70;;;1.70;;
1545;SDS011;766;51.502;9.752;2023-03-16T04:37:41;8.03;;;1.70;;
1545;SDS011;766;51.502;9.752;2023-03-16T04:40:10;7.50;;;1.80;;
1545;SDS011;766;51.502;9.752;2023-03-16T04:42:47;4.50;;;1.90;;
1545;SDS011;766;51.502;9.752;2023-03-16T04:45:16;3.63;;;2.17;;
1545;SDS011;766;51.502;9.752;2023-03-16T04:47:44;4.45;;;2.20;;
1545;SDS011;766;51.502;9.752;2023-03-16T04:50:15;6.60;;;2.23;;
1545;SDS011;766;51.502;9.752;2023-03-16T04:52:43;5.37;;;3.20;;
1545;SDS011;766;51.502;9.752;2023-03-16T04:55:12;8.13;;;2.58;;
1545;SDS011;766;51.502;9.752;2023-03-16T04:57:40;5.63;;;2.40;;
1545;SDS011;766;51.502;9.752;2023-03-16T05:00:10;5.65;;;2.75;;
1545;SDS011;766;51.502;9.752;2023-03-16T05:02:44;3.17;;;2.00;;
1545;SDS011;766;51.502;9.752;2023-03-16T05:05:12;6.05;;;2.35;;
1545;SDS011;766;51.502;9.752;2023-03-16T05:07:41;4.17;;;1.73;;
1545;SDS011;766;51.502;9.752;2023-03-16T05:10:11;8.57;;;2.03;;
1545;SDS011;766;51.502;9.752;2023-03-16T05:12:40;5.17;;;1.77;;
1545;SDS011;766;51.502;9.752;2023-03-16T05:15:10;4.57;;;1.70;;
1545;SDS011;766;51.502;9.752;2023-03-16T05:17:39;3.80;;;1.83;;
1545;SDS011;766;51.502;9.752;2023-03-16T05:20:08;5.83;;;2.17;;
1545;SDS011;766;51.502;9.752;2023-03-16T05:22:41;6.65;;;1.83;;
1545;SDS011;766;51.502;9.752;2023-03-16T05:25:11;6.77;;;1.70;;
1545;SDS011;766;51.502;9.752;2023-03-16T05:27:40;7.22;;;2.30;;
1545;SDS011;766;51.502;9.752;2023-03-16T05:30:11;6.70;;;2.37;;
1545;SDS011;766;51.502;9.752;2023-03-16T05:32:41;6.25;;;2.28;;
1545;SDS011;766;51.502;9.752;2023-03-16T05:35:10;7.78;;;2.63;;
1545;SDS011;766;51.502;9.752;2023-03-16T05:37:39;5.72;;;2.13;;
1545;SDS011;766;51.502;9.752;2023-03-16T05:40:10;8.95;;;2.65;;
1545;SDS011;766;51.502;9.752;2023-03-16T05:42:39;5.07;;;1.98;;
1545;SDS011;766;51.502;9.752;2023-03-16T05:45:08;6.63;;;2.42;;
1545;SDS011;766;51.502;9.752;2023-03-16T05:47:38;4.65;;;2.50;;
1545;SDS011;766;51.502;9.752;2023-03-16T05:50:08;4.35;;;2.67;;
1545;SDS011;766;51.502;9.752;2023-03-16T05:52:38;4.55;;;2.85;;
1545;SDS011;766;51.502;9.752;2023-03-16T05:55:07;6.13;;;2.53;;
1545;SDS011;766;51.502;9.752;2023-03-16T05:57:36;7.82;;;2.67;;
1545;SDS011;766;51.502;9.752;2023-03-16T06:00:08;8.38;;;2.83;;
1545;SDS011;766;51.502;9.752;2023-03-16T06:02:42;8.15;;;3.08;;
1545;SDS011;766;51.502;9.752;2023-03-16T06:05:12;4.22;;;2.33;;
1545;SDS011;766;51.502;9.752;2023-03-16T06:07:40;5.20;;;2.83;;
1545;SDS011;766;51.502;9.752;2023-03-16T06:10:09;9.30;;;2.47;;
1545;SDS011;766;51.502;9.752;2023-03-16T06:12:39;6.20;;;2.13;;
1545;SDS011;766;51.502;9.752;2023-03-16T06:15:08;7.28;;;2.22;;
1545;SDS011;766;51.502;9.752;2023-03-16T06:17:38;6.30;;;1.58;;
1545;SDS011;766;51.502;9.752;2023-03-16T06:20:09;4.80;;;1.70;;
1545;SDS011;766;51.502;9.752;2023-03-16T06:22:40;3.33;;;1.40;;
1545;SDS011;766;51.502;9.752;2023-03-16T06:25:09;3.27;;;1.20;;
1545;SDS011;766;51.502;9.752;2023-03-16T06:27:39;4.45;;;1.67;;
1545;SDS011;766;51.502;9.752;2023-03-16T06:30:08;5.20;;;1.30;;
1545;SDS011;766;51.502;9.752;2023-03-16T06:32:38;6.50;;;1.30;;
1545;SDS011;766;51.502;9.752;2023-03-16T06:35:10;3.92;;;1.40;;
1545;SDS011;766;51.502;9.752;2023-03-16T06:37:39;3.92;;;1.25;;
1545;SDS011;766;51.502;9.752;2023-03-16T06:40:08;5.68;;;1.63;;
1545;SDS011;766;51.502;9.752;2023-03-16T06:42:39;4.82;;;1.60;;
1545;SDS011;766;51.502;9.752;2023-03-16T06:45:10;8.52;;;1.70;;
1545;SDS011;766;51.502;9.752;2023-03-16T06:47:39;6.18;;;1.60;;
1545;SDS011;766;51.502;9.752;2023-03-16T06:50:11;7.03;;;1.40;;
1545;SDS011;766;51.502;9.752;2023-03-16T06:52:40;6.63;;;1.20;;
1545;SDS011;766;51.502;9.752;2023-03-16T06:55:09;4.53;;;1.45;;
1545;SDS011;766;51.502;9.752;2023-03-16T06:57:38;3.67;;;1.30;;
1545;SDS011;766;51.502;9.752;2023-03-16T07:00:07;5.38;;;1.50;;
1545;SDS011;766;51.502;9.752;2023-03-16T07:02:37;3.67;;;1.08;;
1545;SDS011;766;51.502;9.752;2023-03-16T07:05:06;6.78;;;1.40;;
1545;SDS011;766;51.502;9.752;2023-03-16T07:07:40;5.07;;;1.30;;
1545;SDS011;766;51.502;9.752;2023-03-16T07:10:09;5.20;;;1.42;;
1545;SDS011;766;51.502;9.752;2023-03-16T07:12:39;3.75;;;1.60;;
1545;SDS011;766;51.502;9.752;2023-03-16T07:15:08;4.00;;;1.52;;
1545;SDS011;766;51.502;9.752;2023-03-16T07:17:37;3.47;;;1.73;;
1545;SDS011;766;51.502;9.752;2023-03-16T07:20:06;2.35;;;1.40;;
1545;SDS011;766;51.502;9.752;2023-03-16T07:22:36;6.40;;;1.75;;
1545;SDS011;766;51.502;9.752;2023-03-16T07:25:09;5.40;;;1.63;;
1545;SDS011;766;51.502;9.752;2023-03-16T07:27:39;4.53;;;1.27;;
1545;SDS011;766;51.502;9.752;2023-03-16T07:30:09;8.85;;;1.38;;
1545;SDS011;766;51.502;9.752;2023-03-16T07:32:39;5.47;;;1.40;;
1545;SDS011;766;51.502;9.752;2023-03-16T07:35:08;3.60;;;1.55;;
1545;SDS011;766;51.502;9.752;2023-03-16T07:37:37;6.38;;;1.13;;
1545;SDS011;766;51.502;9.752;2023-03-16T07:40:06;3.72;;;1.33;;
1545;SDS011;766;51.502;9.752;2023-03-16T07:42:36;5.55;;;1.88;;
1545;SDS011;766;51.502;9.752;2023-03-16T07:45:05;4.40;;;1.40;;
1545;SDS011;766;51.502;9.752;2023-03-16T07:47:34;5.45;;;1.50;;
1545;SDS011;766;51.502;9.752;2023-03-16T07:50:03;8.88;;;2.05;;
1545;SDS011;766;51.502;9.752;2023-03-16T07:52:32;4.85;;;1.25;;
1545;SDS011;766;51.502;9.752;2023-03-16T07:55:03;5.30;;;1.52;;
1545;SDS011;766;51.502;9.752;2023-03-16T07:57:32;3.15;;;1.17;;
1545;SDS011;766;51.502;9.752;2023-03-16T08:00:02;4.97;;;1.55;;
1545;SDS011;766;51.502;9.752;2023-03-16T08:02:32;4.63;;;1.30;;
1545;SDS011;766;51.502;9.752;2023-03-16T08:05:01;8.63;;;1.15;;
1545;SDS011;766;51.502;9.752;2023-03-16T08:07:29;8.45;;;1.63;;
1545;SDS011;766;51.502;9.752;2023-03-16T08:09:57;5.80;;;1.30;;
1545;SDS011;766;51.502;9.752;2023-03-16T08:12:26;4.95;;;1.30;;
1545;SDS011;766;51.502;9.752;2023-03-16T08:14:55;2.50;;;1.20;;
1545;SDS011;766;51.502;9.752;2023-03-16T08:17:24;6.22;;;1.08;;
1545;SDS011;766;51.502;9.752;2023-03-16T08:19:53;2.83;;;0.95;;
1545;SDS011;766;51.502;9.752;2023-03-16T08:22:22;4.80;;;1.33;;
1545;SDS011;766;51.502;9.752;2023-03-16T08:24:51;2.22;;;1.08;;
1545;SDS011;766;51.502;9.752;2023-03-16T08:27:19;2.17;;;0.93;;
1545;SDS011;766;51.502;9.752;2023-03-16T08:29:50;3.88;;;1.45;;
1545;SDS011;766;51.502;9.752;2023-03-16T08:32:19;4.18;;;1.30;;
1545;SDS011;766;51.502;9.752;2023-03-16T08:34:50;4.05;;;1.00;;
1545;SDS011;766;51.502;9.752;2023-03-16T08:37:19;3.15;;;1.30;;
1545;SDS011;766;51.502;9.752;2023-03-16T08:39:47;5.03;;;1.30;;
1545;SDS011;766;51.502;9.752;2023-03-16T08:42:17;4.72;;;1.40;;
1545;SDS011;766;51.502;9.752;2023-03-16T08:44:46;6.80;;;1.33;;
1545;SDS011;766;51.502;9.752;2023-03-16T08:47:14;6.28;;;1.83;;
1545;SDS011;766;51.502;9.752;2023-03-16T08:49:44;4.30;;;1.40;;
1545;SDS011;766;51.502;9.752;2023-03-16T08:52:13;2.17;;;1.05;;
1545;SDS011;766;51.502;9.752;2023-03-16T08:54:42;6.85;;;1.58;;
1545;SDS011;766;51.502;9.752;2023-03-16T08:57:28;2.92;;;1.33;;
1545;SDS011;766;51.502;9.752;2023-03-16T09:00:03;3.35;;;1.40;;
1545;SDS011;766;51.502;9.752;2023-03-16T09:02:38;8.00;;;1.42;;
1545;SDS011;766;51.502;9.752;2023-03-16T09:05:07;2.80;;;1.10;;
1545;SDS011;766;51.502;9.752;2023-03-16T09:07:38;2.90;;;1.08;;
1545;SDS011;766;51.502;9.752;2023-03-16T09:10:08;6.35;;;1.50;;
1545;SDS011;766;51.502;9.752;2023-03-16T09:12:41;4.65;;;0.90;;
1545;SDS011;766;51.502;9.752;2023-03-16T09:15:11;3.15;;;1.10;;
1545;SDS011;766;51.502;9.752;2023-03-16T09:17:40;4.30;;;1.20;;
1545;SDS011;766;51.502;9.752;2023-03-16T09:20:11;3.80;;;1.13;;
1545;SDS011;766;51.502;9.752;2023-03-16T09:22:52;4.10;;;1.45;;
1545;SDS011;766;51.502;9.752;2023-03-16T09:25:24;7.05;;;1.25;;
1545;SDS011;766;51.502;9.752;2023-03-16T09:27:53;10.65;;;1.73;;
1545;SDS011;766;51.502;9.752;2023-03-16T09:30:22;4.25;;;1.73;;
1545;SDS011;766;51.502;9.752;2023-03-16T09:32:52;2.80;;;1.30;;
1545;SDS011;766;51.502;9.752;2023-03-16T09:35:20;4.78;;;1.10;;
1545;SDS011;766;51.502;9.752;2023-03-16T09:37:49;2.67;;;1.00;;
1545;SDS011;766;51.502;9.752;2023-03-16T09:40:33;2.83;;;1.20;;
1545;SDS011;766;51.502;9.752;2023-03-16T09:43:14;2.20;;;1.13;;
1545;SDS011;766;51.502;9.752;2023-03-16T09:45:55;3.38;;;1.33;;
1545;SDS011;766;51.502;9.752;2023-03-16T09:48:31;3.00;;;1.30;;
1545;SDS011;766;51.502;9.752;2023-03-16T09:51:03;2.72;;;1.38;;
1545;SDS011;766;51.502;9.752;2023-03-16T09:53:34;3.08;;;1.30;;
1545;SDS011;766;51.502;9.752;2023-03-16T09:56:09;3.42;;;1.42;;
1545;SDS011;766;51.502;9.752;2023-03-16T09:58:56;2.38;;;1.20;;
1545;SDS011;766;51.502;9.752;2023-03-16T10:04:58;2.78;;;1.20;;
1545;SDS011;766;51.502;9.752;2023-03-16T10:07:52;3.28;;;1.40;;
1545;SDS011;766;51.502;9.752;2023-03-16T10:10:33;5.45;;;1.25;;
1545;SDS011;766;51.502;9.752;2023-03-16T10:13:19;3.28;;;1.33;;
1545;SDS011;766;51.502;9.752;2023-03-16T10:15:58;2.45;;;1.20;;
1545;SDS011;766;51.502;9.752;2023-03-16T10:18:32;4.07;;;1.55;;
1545;SDS011;766;51.502;9.752;2023-03-16T10:21:10;2.35;;;1.30;;
1545;SDS011;766;51.502;9.752;2023-03-16T10:23:40;4.28;;;1.63;;
1545;SDS011;766;51.502;9.752;2023-03-16T10:26:12;2.20;;;1.33;;
1545;SDS011;766;51.502;9.752;2023-03-16T10:28:46;5.63;;;1.50;;
1545;SDS011;766;51.502;9.752;2023-03-16T10:31:15;4.25;;;1.30;;
1545;SDS011;766;51.502;9.752;2023-03-16T10:33:46;2.42;;;1.27;;
1545;SDS011;766;51.502;9.752;2023-03-16T10:36:22;2.90;;;1.38;;
1545;SDS011;766;51.502;9.752;2023-03-16T10:38:56;5.25;;;1.42;;
1545;SDS011;766;51.502;9.752;2023-03-16T10:41:26;6.28;;;1.50;;
1545;SDS011;766;51.502;9.752;2023-03-16T10:44:01;2.42;;;1.30;;
1545;SDS011;766;51.502;9.752;2023-03-16T10:46:35;3.33;;;1.42;;
1545;SDS011;766;51.502;9.752;2023-03-16T10:49:17;4.25;;;1.67;;
1545;SDS011;766;51.502;9.752;2023-03-16T10:51:48;3.08;;;1.25;;
1545;SDS011;766;51.502;9.752;2023-03-16T10:54:19;2.97;;;1.25;;
1545;SDS011;766;51.502;9.752;2023-03-16T10:56:53;4.60;;;1.55;;
1545;SDS011;766;51.502;9.752;2023-03-16T10:59:28;6.25;;;2.00;;
1545;SDS011;766;51.502;9.752;2023-03-16T11:02:01;3.00;;;1.55;;
1545;SDS011;766;51.502;9.752;2023-03-16T11:04:40;4.03;;;1.55;;
1545;SDS011;766;51.502;9.752;2023-03-16T11:07:14;6.90;;;1.42;;
1545;SDS011;766;51.502;9.752;2023-03-16T11:09:44;4.38;;;1.63;;
1545;SDS011;766;51.502;9.752;2023-03-16T11:12:14;3.60;;;2.08;;
1545;SDS011;766;51.502;9.752;2023-03-16T11:14:51;2.75;;;1.50;;
1545;SDS011;766;51.502;9.752;2023-03-16T11:17:23;3.08;;;1.40;;
1545;SDS011;766;51.502;9.752;2023-03-16T11:20:02;2.00;;;1.30;;
1545;SDS011;766;51.502;9.752;2023-03-16T11:22:40;2.83;;;1.60;;
1545;SDS011;766;51.502;9.752;2023-03-16T11:25:13;3.90;;;1.33;;
1545;SDS011;766;51.502;9.752;2023-03-16T11:27:46;3.83;;;1.63;;
1545;SDS011;766;51.502;9.752;2023-03-16T11:30:22;2.55;;;1.42;;
1545;SDS011;766;51.502;9.752;2023-03-16T11:32:56;2.15;;;1.40;;
1545;SDS011;766;51.502;9.752;2023-03-16T11:35:27;3.55;;;1.35;;
1545;SDS011;766;51.502;9.752;2023-03-16T11:38:25;3.50;;;1.50;;
1545;SDS011;766;51.502;9.752;2023-03-16T11:41:02;3.38;;;1.70;;
1545;SDS011;766;51.502;9.752;2023-03-16T11:43:47;2.80;;;1.63;;
1545;SDS011;766;51.502;9.752;2023-03-16T11:46:21;3.65;;;1.70;;
1545;SDS011;766;51.502;9.752;2023-03-16T11:48:54;2.45;;;1.60;;
1545;SDS011;766;51.502;9.752;2023-03-16T11:51:37;3.97;;;1.70;;
1545;SDS011;766;51.502;9.752;2023-03-16T11:54:16;4.70;;;1.50;;
1545;SDS011;766;51.502;9.752;2023-03-16T11:57:00;2.70;;;1.75;;
1545;SDS011;766;51.502;9.752;2023-03-16T11:59:43;4.20;;;2.10;;
1545;SDS011;766;51.502;9.752;2023-03-16T12:05:36;3.65;;;1.55;;
1545;SDS011;766;51.502;9.752;2023-03-16T12:08:22;2.95;;;1.52;;
1545;SDS011;766;51.502;9.752;2023-03-16T12:11:13;5.45;;;2.15;;
1545;SDS011;766;51.502;9.752;2023-03-16T12:13:59;2.58;;;1.73;;
1545;SDS011;766;51.502;9.752;2023-03-16T12:16:36;4.25;;;1.77;;
1545;SDS011;766;51.502;9.752;2023-03-16T12:19:18;3.42;;;1.80;;
1545;SDS011;766;51.502;9.752;2023-03-16T12:21:53;3.05;;;1.35;;
1545;SDS011;766;51.502;9.752;2023-03-16T12:24:30;3.28;;;1.80;;
1545;SDS011;766;51.502;9.752;2023-03-16T12:27:07;2.95;;;1.70;;
1545;SDS011;766;51.502;9.752;2023-03-16T12:29:43;2.30;;;1.50;;
1545;SDS011;766;51.502;9.752;2023-03-16T12:32:28;2.33;;;1.40;;
1545;SDS011;766;51.502;9.752;2023-03-16T12:35:12;4.05;;;1.50;;
1545;SDS011;766;51.502;9.752;2023-03-16T12:37:52;2.40;;;1.50;;
1545;SDS011;766;51.502;9.752;2023-03-16T12:40:34;2.17;;;1.30;;
1545;SDS011;766;51.502;9.752;2023-03-16T12:43:14;1.65;;;1.40;;
1545;SDS011;766;51.502;9.752;2023-03-16T12:45:52;4.72;;;1.63;;
1545;SDS011;766;51.502;9.752;2023-03-16T12:48:26;3.67;;;1.50;;
1545;SDS011;766;51.502;9.752;2023-03-16T12:51:00;4.20;;;1.60;;
1545;SDS011;766;51.502;9.752;2023-03-16T12:53:38;3.92;;;1.58;;
1545;SDS011;766;51.502;9.752;2023-03-16T12:56:10;3.70;;;1.65;;
1545;SDS011;766;51.502;9.752;2023-03-16T12:58:41;8.00;;;1.83;;
1545;SDS011;766;51.502;9.752;2023-03-16T13:01:12;3.08;;;1.42;;
1545;SDS011;766;51.502;9.752;2023-03-16T13:03:45;3.00;;;1.85;;
1545;SDS011;766;51.502;9.752;2023-03-16T13:06:19;3.97;;;1.75;;
1545;SDS011;766;51.502;9.752;2023-03-16T13:08:51;3.15;;;1.65;;
1545;SDS011;766;51.502;9.752;2023-03-16T13:11:22;2.63;;;1.55;;
1545;SDS011;766;51.502;9.752;2023-03-16T13:13:51;2.88;;;1.50;;
1545;SDS011;766;51.502;9.752;2023-03-16T13:16:34;6.68;;;1.40;;
1545;SDS011;766;51.502;9.752;2023-03-16T13:19:15;2.80;;;1.35;;
1545;SDS011;766;51.502;9.752;2023-03-16T13:22:00;2.22;;;1.40;;
1545;SDS011;766;51.502;9.752;2023-03-16T13:24:36;2.78;;;1.60;;
1545;SDS011;766;51.502;9.752;2023-03-16T13:27:12;2.67;;;1.27;;
1545;SDS011;766;51.502;9.752;2023-03-16T13:29:54;3.85;;;1.20;;
1545;SDS011;766;51.502;9.752;2023-03-16T13:32:29;3.90;;;0.98;;
1545;SDS011;766;51.502;9.752;2023-03-16T13:34:59;2.53;;;1.40;;
1545;SDS011;766;51.502;9.752;2023-03-16T13:37:32;1.80;;;1.30;;
1545;SDS011;766;51.502;9.752;2023-03-16T13:40:01;3.80;;;1.20;;
1545;SDS011;766;51.502;9.752;2023-03-16T13:42:31;2.50;;;1.30;;
1545;SDS011;766;51.502;9.752;2023-03-16T13:45:07;3.67;;;1.30;;
1545;SDS011;766;51.502;9.752;2023-03-16T13:47:41;3.50;;;1.27;;
1545;SDS011;766;51.502;9.752;2023-03-16T13:50:11;2.83;;;1.42;;
1545;SDS011;766;51.502;9.752;2023-03-16T13:52:42;1.50;;;0.80;;
1545;SDS011;766;51.502;9.752;2023-03-16T13:55:17;2.10;;;1.10;;
1545;SDS011;766;51.502;9.752;2023-03-16T13:57:53;2.28;;;1.38;;
1545;SDS011;766;51.502;9.752;2023-03-16T14:00:21;2.30;;;1.27;;
1545;SDS011;766;51.502;9.752;2023-03-16T14:02:52;2.70;;;1.20;;
1545;SDS011;766;51.502;9.752;2023-03-16T14:05:22;4.20;;;1.60;;
1545;SDS011;766;51.502;9.752;2023-03-16T14:07:54;2.33;;;1.20;;
1545;SDS011;766;51.502;9.752;2023-03-16T14:10:26;2.47;;;1.17;;
1545;SDS011;766;51.502;9.752;2023-03-16T14:13:05;2.35;;;1.30;;
1545;SDS011;766;51.502;9.752;2023-03-16T14:15:38;3.05;;;1.30;;
1545;SDS011;766;51.502;9.752;2023-03-16T14:18:11;2.67;;;1.20;;
1545;SDS011;766;51.502;9.752;2023-03-16T14:20:41;2.28;;;1.17;;
1545;SDS011;766;51.502;9.752;2023-03-16T14:23:17;1.85;;;1.00;;
1545;SDS011;766;51.502;9.752;2023-03-16T14:25:47;2.08;;;1.10;;
1545;SDS011;766;51.502;9.752;2023-03-16T14:28:16;2.13;;;1.30;;
1545;SDS011;766;51.502;9.752;2023-03-16T14:30:51;2.47;;;1.17;;
1545;SDS011;766;51.502;9.752;2023-03-16T14:33:28;4.70;;;1.02;;
1545;SDS011;766;51.502;9.752;2023-03-16T14:35:59;2.15;;;1.40;;
1545;SDS011;766;51.502;9.752;2023-03-16T14:38:38;3.03;;;1.30;;
1545;SDS011;766;51.502;9.752;2023-03-16T14:41:16;2.13;;;0.93;;
1545;SDS011;766;51.502;9.752;2023-03-16T14:43:49;1.88;;;0.98;;
1545;SDS011;766;51.502;9.752;2023-03-16T14:46:23;1.40;;;0.90;;
1545;SDS011;766;51.502;9.752;2023-03-16T14:48:59;1.50;;;1.00;;
1545;SDS011;766;51.502;9.752;2023-03-16T14:51:29;1.60;;;1.00;;
1545;SDS011;766;51.502;9.752;2023-03-16T14:53:59;2.95;;;1.10;;
1545;SDS011;766;51.502;9.752;2023-03-16T14:56:32;3.15;;;1.15;;
1545;SDS011;766;51.502;9.752;2023-03-16T14:59:02;2.50;;;1.33;;
1545;SDS011;766;51.502;9.752;2023-03-16T15:01:31;3.20;;;1.33;;
1545;SDS011;766;51.502;9.752;2023-03-16T15:03:59;1.55;;;0.90;;
1545;SDS011;766;51.502;9.752;2023-03-16T15:06:38;4.47;;;2.72;;
1545;SDS011;766;51.502;9.752;2023-03-16T15:09:09;3.80;;;1.00;;
1545;SDS011;766;51.502;9.752;2023-03-16T15:11:54;2.22;;;1.20;;
1545;SDS011;766;51.502;9.752;2023-03-16T15:14:26;2.67;;;1.40;;
1545;SDS011;766;51.502;9.752;2023-03-16T15:17:12;2.85;;;1.20;;
1545;SDS011;766;51.502;9.752;2023-03-16T15:19:42;1.25;;;1.13;;
1545;SDS011;766;51.502;9.752;2023-03-16T15:22:10;2.53;;;1.42;;
1545;SDS011;766;51.502;9.752;2023-03-16T15:24:41;2.50;;;1.50;;
1545;SDS011;766;51.502;9.752;2023-03-16T15:27:16;2.83;;;1.50;;
1545;SDS011;766;51.502;9.752;2023-03-16T15:29:46;4.00;;;1.38;;
1545;SDS011;766;51.502;9.752;2023-03-16T15:32:15;2.80;;;1.50;;
1545;SDS011;766;51.502;9.752;2023-03-16T15:34:44;3.67;;;1.50;;
1545;SDS011;766;51.502;9.752;2023-03-16T15:37:13;3.90;;;1.40;;
1545;SDS011;766;51.502;9.752;2023-03-16T15:39:44;2.70;;;1.30;;
1545;SDS011;766;51.502;9.752;2023-03-16T15:42:13;2.95;;;1.45;;
1545;SDS011;766;51.502;9.752;2023-03-16T15:44:46;2.88;;;1.52;;
1545;SDS011;766;51.502;9.752;2023-03-16T15:47:25;3.60;;;1.42;;
1545;SDS011;766;51.502;9.752;2023-03-16T15:49:53;2.17;;;1.38;;
1545;SDS011;766;51.502;9.752;2023-03-16T15:52:31;2.78;;;1.60;;
1545;SDS011;766;51.502;9.752;2023-03-16T15:55:08;3.63;;;1.75;;
1545;SDS011;766;51.502;9.752;2023-03-16T15:57:42;1.95;;;1.27;;
1545;SDS011;766;51.502;9.752;2023-03-16T16:00:19;2.20;;;1.63;;
1545;SDS011;766;51.502;9.752;2023-03-16T16:03:01;3.78;;;1.30;;
1545;SDS011;766;51.502;9.752;2023-03-16T16:05:31;3.58;;;1.40;;
1545;SDS011;766;51.502;9.752;2023-03-16T16:07:59;2.83;;;1.58;;
1545;SDS011;766;51.502;9.752;2023-03-16T16:10:29;2.70;;;1.45;;